createdAt,value
2018-08-11T00:00:35.162Z,0.00
2018-08-11T00:01:35.141Z,0.00
2018-08-11T00:02:35.115Z,0.00
2018-08-11T00:03:35.101Z,0.00
2018-08-11T00:04:35.881Z,0.00
2018-08-11T00:05:35.106Z,0.00
2018-08-11T00:06:35.063Z,0.00
2018-08-11T00:07:35.115Z,0.00
2018-08-11T00:08:35.127Z,0.00
2018-08-11T00:09:35.027Z,0.00
2018-08-11T00:10:35.048Z,0.00
2018-08-11T00:11:35.053Z,0.00
2018-08-11T00:12:34.999Z,0.00
2018-08-11T00:13:34.992Z,0.00
2018-08-11T00:14:35.020Z,0.00
2018-08-11T00:15:35.046Z,0.00
2018-08-11T00:16:35.020Z,0.00
2018-08-11T00:17:34.947Z,0.00
2018-08-11T00:18:35.852Z,0.00
2018-08-11T00:19:34.910Z,0.00
2018-08-11T00:20:35.033Z,0.00
2018-08-11T00:21:35.303Z,0.00
2018-08-11T00:22:34.963Z,0.00
2018-08-11T00:23:34.869Z,0.00
2018-08-11T00:24:34.854Z,0.00
2018-08-11T00:25:35.521Z,0.00
2018-08-11T00:26:34.919Z,0.00
2018-08-11T00:27:34.863Z,0.00
2018-08-11T00:28:34.917Z,0.00
2018-08-11T00:29:34.800Z,0.00
2018-08-11T00:30:34.931Z,0.00
2018-08-11T00:31:34.772Z,0.00
2018-08-11T00:32:34.822Z,0.00
2018-08-11T00:33:34.758Z,0.00
2018-08-11T00:34:34.787Z,0.00
2018-08-11T00:35:34.758Z,0.00
2018-08-11T00:36:34.792Z,0.00
2018-08-11T00:37:34.704Z,0.00
2018-08-11T00:38:34.689Z,0.00
2018-08-11T00:39:34.692Z,0.00
2018-08-11T00:40:34.693Z,0.00
2018-08-11T00:41:34.662Z,0.00
2018-08-11T00:42:34.651Z,0.00
2018-08-11T00:43:34.630Z,0.00
2018-08-11T00:44:34.623Z,0.00
2018-08-11T00:45:34.633Z,0.00
2018-08-11T00:46:34.599Z,0.00
2018-08-11T00:47:34.591Z,0.00
2018-08-11T00:48:34.578Z,0.00
2018-08-11T00:49:34.653Z,0.00
2018-08-11T00:50:34.582Z,0.00
2018-08-11T00:51:34.546Z,0.00
2018-08-11T00:52:34.526Z,0.00
2018-08-11T00:53:34.523Z,0.00
2018-08-11T00:54:34.503Z,0.00
2018-08-11T00:55:34.525Z,0.00
2018-08-11T00:56:34.491Z,0.00
2018-08-11T00:57:34.468Z,0.00
2018-08-11T00:58:34.465Z,0.00
2018-08-11T00:59:34.444Z,0.00
2018-08-11T01:00:34.455Z,0.00
2018-08-11T01:01:34.424Z,0.00
2018-08-11T01:02:34.415Z,0.00
2018-08-11T01:03:34.401Z,0.00
2018-08-11T01:04:34.396Z,0.00
2018-08-11T01:05:34.400Z,0.00
2018-08-11T01:06:34.367Z,0.00
2018-08-11T01:07:34.351Z,0.00
2018-08-11T01:08:34.344Z,0.00
2018-08-11T01:09:34.333Z,0.00
2018-08-11T01:10:34.350Z,0.00
2018-08-11T01:11:34.305Z,0.00
2018-08-11T01:12:34.298Z,0.00
2018-08-11T01:13:34.284Z,0.00
2018-08-11T01:14:34.269Z,0.00
2018-08-11T01:15:34.289Z,0.00
2018-08-11T01:16:34.249Z,0.00
2018-08-11T01:17:34.235Z,0.00
2018-08-11T01:18:34.240Z,0.00
2018-08-11T01:19:34.211Z,0.00
2018-08-11T01:20:34.230Z,0.00
2018-08-11T01:21:34.189Z,0.00
2018-08-11T01:22:34.176Z,0.00
2018-08-11T01:23:34.169Z,0.00
2018-08-11T01:24:34.154Z,0.00
2018-08-11T01:25:34.174Z,0.00
2018-08-11T01:26:34.136Z,0.00
2018-08-11T01:27:34.121Z,0.00
2018-08-11T01:28:34.116Z,0.00
2018-08-11T01:29:34.095Z,0.00
2018-08-11T01:30:34.111Z,0.00
2018-08-11T01:31:34.078Z,0.00
2018-08-11T01:32:34.059Z,0.00
2018-08-11T01:33:34.054Z,0.00
2018-08-11T01:34:34.038Z,0.00
2018-08-11T01:35:34.053Z,0.00
2018-08-11T01:36:34.023Z,0.00
2018-08-11T01:37:34.005Z,0.00
2018-08-11T01:38:33.991Z,0.00
2018-08-11T01:39:33.987Z,0.00
2018-08-11T01:40:33.990Z,0.00
2018-08-11T01:41:33.961Z,0.00
2018-08-11T01:42:33.949Z,0.00
2018-08-11T01:43:33.965Z,0.00
2018-08-11T01:44:33.928Z,0.00
2018-08-11T01:45:33.908Z,0.00
2018-08-11T01:46:33.898Z,0.00
2018-08-11T01:47:33.891Z,0.00
2018-08-11T01:48:33.872Z,0.00
2018-08-11T01:49:33.893Z,0.00
2018-08-11T01:50:33.852Z,0.00
2018-08-11T01:51:33.840Z,0.00
2018-08-11T01:52:33.837Z,0.00
2018-08-11T01:53:33.821Z,0.00
2018-08-11T01:54:33.844Z,0.00
2018-08-11T01:55:33.790Z,0.00
2018-08-11T01:56:33.786Z,0.00
2018-08-11T01:57:33.773Z,0.00
2018-08-11T01:58:33.764Z,0.00
2018-08-11T01:59:33.745Z,0.00
2018-08-11T02:00:33.771Z,0.00
2018-08-11T02:01:33.726Z,0.00
2018-08-11T02:02:33.711Z,0.00
2018-08-11T02:03:33.708Z,0.00
2018-08-11T02:04:33.691Z,0.00
2018-08-11T02:05:33.682Z,0.00
2018-08-11T02:06:33.700Z,0.00
2018-08-11T02:07:33.653Z,0.00
2018-08-11T02:08:33.648Z,0.00
2018-08-11T02:09:33.639Z,0.00
2018-08-11T02:10:33.628Z,0.00
2018-08-11T02:11:33.611Z,0.00
2018-08-11T02:12:33.634Z,0.00
2018-08-11T02:13:33.588Z,0.00
2018-08-11T02:14:33.579Z,0.00
2018-08-11T02:15:33.565Z,0.00
2018-08-11T02:16:33.556Z,0.00
2018-08-11T02:17:33.546Z,0.00
2018-08-11T02:18:33.554Z,0.00
2018-08-11T02:19:33.522Z,0.00
2018-08-11T02:20:33.510Z,0.00
2018-08-11T02:21:33.495Z,0.00
2018-08-11T02:22:33.487Z,0.00
2018-08-11T02:23:33.505Z,0.00
2018-08-11T02:24:33.467Z,0.00
2018-08-11T02:25:33.446Z,0.00
2018-08-11T02:26:33.443Z,0.00
2018-08-11T02:27:33.425Z,0.00
2018-08-11T02:28:33.422Z,0.00
2018-08-11T02:29:33.435Z,0.00
2018-08-11T02:30:33.398Z,0.00
2018-08-11T02:31:33.377Z,0.00
2018-08-11T02:32:33.363Z,0.00
2018-08-11T02:33:33.366Z,0.00
2018-08-11T02:34:33.342Z,0.00
2018-08-11T02:35:33.377Z,0.00
2018-08-11T02:36:33.323Z,0.00
2018-08-11T02:37:33.313Z,0.00
2018-08-11T02:38:33.298Z,0.00
2018-08-11T02:39:33.290Z,0.00
2018-08-11T02:40:33.279Z,0.00
2018-08-11T02:41:33.302Z,0.00
2018-08-11T02:42:33.248Z,0.00
2018-08-11T02:43:33.246Z,0.00
2018-08-11T02:44:33.227Z,0.00
2018-08-11T02:45:33.222Z,0.00
2018-08-11T02:46:33.216Z,0.00
2018-08-11T02:47:33.225Z,0.00
2018-08-11T02:48:33.188Z,0.00
2018-08-11T02:49:33.166Z,0.00
2018-08-11T02:50:33.157Z,0.00
2018-08-11T02:51:33.149Z,0.00
2018-08-11T02:52:33.131Z,0.00
2018-08-11T02:53:33.151Z,0.00
2018-08-11T02:54:33.107Z,0.00
2018-08-11T02:55:33.099Z,0.00
2018-08-11T02:56:33.088Z,0.00
2018-08-11T02:57:33.078Z,0.00
2018-08-11T02:58:33.096Z,0.00
2018-08-11T02:59:33.055Z,0.00
2018-08-11T03:00:33.049Z,0.00
2018-08-11T03:01:33.027Z,0.00
2018-08-11T03:02:33.061Z,0.00
2018-08-11T03:03:33.009Z,0.00
2018-08-11T03:04:33.057Z,0.00
2018-08-11T03:05:32.989Z,0.00
2018-08-11T03:06:32.976Z,0.00
2018-08-11T03:07:32.972Z,0.00
2018-08-11T03:08:32.954Z,0.00
2018-08-11T03:09:32.958Z,0.00
2018-08-11T03:10:32.925Z,0.00
2018-08-11T03:11:32.909Z,0.00
2018-08-11T03:12:32.911Z,0.00
2018-08-11T03:13:32.896Z,0.00
2018-08-11T03:14:32.908Z,0.00
2018-08-11T03:15:32.873Z,0.00
2018-08-11T03:16:32.854Z,0.00
2018-08-11T03:17:32.851Z,0.00
2018-08-11T03:18:32.829Z,0.00
2018-08-11T03:19:32.831Z,0.00
2018-08-11T03:20:32.839Z,0.00
2018-08-11T03:21:32.795Z,0.00
2018-08-11T03:22:32.792Z,0.00
2018-08-11T03:23:32.773Z,0.00
2018-08-11T03:24:32.767Z,0.00
2018-08-11T03:25:32.779Z,0.00
2018-08-11T03:26:32.742Z,0.00
2018-08-11T03:27:32.733Z,0.00
2018-08-11T03:28:32.716Z,0.00
2018-08-11T03:29:32.708Z,0.00
2018-08-11T03:30:32.731Z,0.00
2018-08-11T03:31:32.680Z,0.00
2018-08-11T03:32:32.676Z,0.00
2018-08-11T03:33:32.654Z,0.00
2018-08-11T03:34:32.668Z,4.00
2018-08-11T03:35:32.632Z,4.00
2018-08-11T03:36:32.643Z,4.00
2018-08-11T03:37:32.616Z,0.00
2018-08-11T03:38:32.596Z,4.00
2018-08-11T03:39:32.592Z,8.00
2018-08-11T03:40:32.579Z,4.00
2018-08-11T03:41:32.598Z,8.00
2018-08-11T03:42:32.555Z,8.00
2018-08-11T03:43:32.542Z,12.00
2018-08-11T03:44:32.526Z,12.00
2018-08-11T03:45:32.528Z,12.00
2018-08-11T03:46:32.507Z,16.00
2018-08-11T03:47:32.520Z,20.00
2018-08-11T03:48:32.485Z,24.00
2018-08-11T03:49:32.467Z,24.00
2018-08-11T03:50:32.459Z,28.00
2018-08-11T03:51:32.481Z,32.00
2018-08-11T03:52:32.500Z,40.00
2018-08-11T03:53:32.422Z,44.00
2018-08-11T03:54:32.409Z,52.00
2018-08-11T03:55:32.399Z,56.00
2018-08-11T03:56:32.390Z,68.00
2018-08-11T03:57:32.396Z,76.00
2018-08-11T03:58:32.357Z,88.00
2018-08-11T03:59:32.355Z,96.00
2018-08-11T04:00:32.344Z,112.00
2018-08-11T04:01:32.338Z,124.00
2018-08-11T04:02:32.352Z,140.00
2018-08-11T04:03:32.300Z,152.00
2018-08-11T04:04:32.297Z,168.00
2018-08-11T04:05:32.275Z,184.00
2018-08-11T04:06:32.309Z,204.00
2018-08-11T04:07:32.256Z,224.00
2018-08-11T04:08:32.265Z,244.00
2018-08-11T04:09:32.236Z,264.00
2018-08-11T04:10:32.221Z,284.00
2018-08-11T04:11:32.206Z,308.00
2018-08-11T04:12:32.195Z,332.00
2018-08-11T04:13:32.222Z,356.00
2018-08-11T04:14:32.177Z,380.00
2018-08-11T04:15:32.161Z,408.00
2018-08-11T04:16:32.142Z,452.00
2018-08-11T04:17:32.144Z,476.00
2018-08-11T04:18:32.123Z,492.00
2018-08-11T04:19:32.150Z,520.00
2018-08-11T04:20:32.096Z,560.00
2018-08-11T04:21:32.092Z,604.00
2018-08-11T04:22:32.072Z,640.00
2018-08-11T04:23:32.069Z,656.00
2018-08-11T04:24:32.059Z,668.00
2018-08-11T04:25:32.061Z,668.00
2018-08-11T04:26:32.035Z,708.00
2018-08-11T04:27:32.012Z,784.00
2018-08-11T04:28:32.009Z,856.00
2018-08-11T04:29:31.992Z,908.00
2018-08-11T04:30:32.007Z,980.00
2018-08-11T04:31:31.969Z,1028.00
2018-08-11T04:32:31.955Z,1036.00
2018-08-11T04:33:31.945Z,1068.00
2018-08-11T04:34:31.942Z,1148.00
2018-08-11T04:35:31.947Z,1216.00
2018-08-11T04:36:31.948Z,1252.00
2018-08-11T04:37:31.894Z,1312.00
2018-08-11T04:38:31.894Z,1396.00
2018-08-11T04:39:31.869Z,1452.00
2018-08-11T04:40:31.860Z,1420.00
2018-08-11T04:41:31.860Z,1544.00
2018-08-11T04:42:31.857Z,1592.00
2018-08-11T04:43:31.833Z,1712.00
2018-08-11T04:44:31.814Z,1744.00
2018-08-11T04:45:31.808Z,1960.00
2018-08-11T04:46:31.792Z,2156.00
2018-08-11T04:47:31.801Z,2184.00
2018-08-11T04:48:31.772Z,2360.00
2018-08-11T04:49:31.763Z,2136.00
2018-08-11T04:50:31.747Z,1916.00
2018-08-11T04:51:31.733Z,1936.00
2018-08-11T04:52:31.757Z,1748.00
2018-08-11T04:53:31.711Z,1496.00
2018-08-11T04:54:31.701Z,1452.00
2018-08-11T04:55:31.686Z,1500.00
2018-08-11T04:56:31.675Z,1404.00
2018-08-11T04:57:31.668Z,1356.00
2018-08-11T04:58:31.682Z,1420.00
2018-08-11T04:59:31.655Z,1376.00
2018-08-11T05:00:31.629Z,1400.00
2018-08-11T05:01:31.620Z,1316.00
2018-08-11T05:02:31.612Z,1448.00
2018-08-11T05:03:31.591Z,1664.00
2018-08-11T05:04:31.607Z,1668.00
2018-08-11T05:05:31.577Z,1456.00
2018-08-11T05:06:31.563Z,1304.00
2018-08-11T05:07:31.549Z,1468.00
2018-08-11T05:08:31.565Z,1536.00
2018-08-11T05:09:31.545Z,1860.00
2018-08-11T05:10:31.517Z,2416.00
2018-08-11T05:11:31.503Z,3068.00
2018-08-11T05:12:31.496Z,3448.00
2018-08-11T05:13:31.477Z,4740.00
2018-08-11T05:14:31.488Z,3672.00
2018-08-11T05:15:31.461Z,3200.00
2018-08-11T05:16:31.448Z,3340.00
2018-08-11T05:17:31.435Z,3132.00
2018-08-11T05:18:31.459Z,2972.00
2018-08-11T05:19:31.413Z,3112.00
2018-08-11T05:20:31.408Z,3820.00
2018-08-11T05:21:31.385Z,4260.00
2018-08-11T05:22:31.382Z,5284.00
2018-08-11T05:23:31.362Z,4716.00
2018-08-11T05:24:31.387Z,4444.00
2018-08-11T05:25:31.343Z,5004.00
2018-08-11T05:26:31.335Z,5868.00
2018-08-11T05:27:31.334Z,4924.00
2018-08-11T05:28:31.305Z,5280.00
2018-08-11T05:29:31.327Z,5352.00
2018-08-11T05:30:31.289Z,5536.00
2018-08-11T05:31:31.275Z,4892.00
2018-08-11T05:32:31.269Z,5624.00
2018-08-11T05:33:31.256Z,6456.00
2018-08-11T05:34:31.269Z,7224.00
2018-08-11T05:35:31.224Z,7268.00
2018-08-11T05:36:31.226Z,5476.00
2018-08-11T05:37:31.205Z,6376.00
2018-08-11T05:38:31.196Z,5068.00
2018-08-11T05:39:31.206Z,5936.00
2018-08-11T05:40:31.168Z,6564.00
2018-08-11T05:41:31.195Z,5300.00
2018-08-11T05:42:31.148Z,7596.00
2018-08-11T05:43:31.143Z,6036.00
2018-08-11T05:44:31.153Z,6132.00
2018-08-11T05:45:31.111Z,7428.00
2018-08-11T05:46:31.108Z,8296.00
2018-08-11T05:47:31.093Z,7836.00
2018-08-11T05:48:31.092Z,8292.00
2018-08-11T05:49:31.099Z,7184.00
2018-08-11T05:50:31.060Z,8176.00
2018-08-11T05:51:31.045Z,8872.00
2018-08-11T05:52:31.033Z,8796.00
2018-08-11T05:53:31.027Z,8688.00
2018-08-11T05:54:31.017Z,8300.00
2018-08-11T05:55:31.018Z,9092.00
2018-08-11T05:56:30.987Z,9856.00
2018-08-11T05:57:30.974Z,7108.00
2018-08-11T05:58:30.965Z,6300.00
2018-08-11T05:59:30.955Z,5212.00
2018-08-11T06:00:30.977Z,5744.00
2018-08-11T06:01:30.928Z,6352.00
2018-08-11T06:02:30.920Z,4792.00
2018-08-11T06:03:30.912Z,5440.00
2018-08-11T06:04:30.901Z,6228.00
2018-08-11T06:05:30.878Z,5780.00
2018-08-11T06:06:30.916Z,5204.00
2018-08-11T06:07:30.855Z,6876.00
2018-08-11T06:08:30.843Z,7304.00
2018-08-11T06:09:30.842Z,6904.00
2018-08-11T06:10:30.872Z,5852.00
2018-08-11T06:11:30.820Z,4536.00
2018-08-11T06:12:30.826Z,5464.00
2018-08-11T06:13:30.788Z,5600.00
2018-08-11T06:14:30.780Z,7788.00
2018-08-11T06:15:30.766Z,7708.00
2018-08-11T06:16:30.753Z,8380.00
2018-08-11T06:17:30.767Z,5972.00
2018-08-11T06:18:30.729Z,6148.00
2018-08-11T06:19:30.723Z,5236.00
2018-08-11T06:20:30.703Z,7064.00
2018-08-11T06:21:30.701Z,7164.00
2018-08-11T06:22:30.719Z,5796.00
2018-08-11T06:23:30.673Z,6464.00
2018-08-11T06:24:30.665Z,6180.00
2018-08-11T06:25:30.644Z,5708.00
2018-08-11T06:26:30.638Z,6756.00
2018-08-11T06:27:30.627Z,9072.00
2018-08-11T06:28:30.637Z,10940.00
2018-08-11T06:29:30.606Z,11088.00
2018-08-11T06:30:30.595Z,7364.00
2018-08-11T06:31:30.619Z,10060.00
2018-08-11T06:32:30.568Z,10416.00
2018-08-11T06:33:30.588Z,12136.00
2018-08-11T06:34:30.539Z,9884.00
2018-08-11T06:35:30.539Z,9056.00
2018-08-11T06:36:30.519Z,10984.00
2018-08-11T06:37:30.510Z,14432.00
2018-08-11T06:38:30.502Z,12668.00
2018-08-11T06:39:30.514Z,12004.00
2018-08-11T06:40:30.511Z,18432.00
2018-08-11T06:41:30.461Z,34528.00
2018-08-11T06:42:30.456Z,18496.00
2018-08-11T06:43:30.443Z,25632.00
2018-08-11T06:44:30.424Z,12352.00
2018-08-11T06:45:30.448Z,16436.00
2018-08-11T06:46:30.427Z,21280.00
2018-08-11T06:47:30.394Z,23744.00
2018-08-11T06:48:30.386Z,19136.00
2018-08-11T06:49:30.380Z,18784.00
2018-08-11T06:50:30.359Z,14388.00
2018-08-11T06:51:30.374Z,13928.00
2018-08-11T06:52:30.338Z,12836.00
2018-08-11T06:53:30.327Z,12764.00
2018-08-11T06:54:30.315Z,14988.00
2018-08-11T06:55:30.352Z,14204.00
2018-08-11T06:56:30.288Z,15676.00
2018-08-11T06:57:30.304Z,24288.00
2018-08-11T06:58:30.266Z,16284.00
2018-08-11T06:59:30.266Z,42976.00
2018-08-11T07:00:30.249Z,48512.00
2018-08-11T07:01:30.235Z,30080.00
2018-08-11T07:02:30.255Z,29376.00
2018-08-11T07:03:30.208Z,7892.00
2018-08-11T07:04:30.199Z,8816.00
2018-08-11T07:05:30.195Z,10744.00
2018-08-11T07:06:30.210Z,14596.00
2018-08-11T07:07:30.195Z,46976.00
2018-08-11T07:08:30.195Z,49440.00
2018-08-11T07:09:30.141Z,44960.00
2018-08-11T07:10:30.133Z,65248.00
2018-08-11T07:11:30.114Z,63744.00
2018-08-11T07:12:30.100Z,14280.00
2018-08-11T07:13:30.131Z,16728.00
2018-08-11T07:14:30.085Z,44224.00
2018-08-11T07:15:30.070Z,40736.00
2018-08-11T07:16:30.055Z,16172.00
2018-08-11T07:17:30.053Z,27968.00
2018-08-11T07:18:30.376Z,29504.00
2018-08-11T07:19:30.049Z,71296.00
2018-08-11T07:20:30.188Z,71552.00
2018-08-11T07:21:29.999Z,35904.00
2018-08-11T07:22:29.991Z,80128.00
2018-08-11T07:23:29.981Z,80672.00
2018-08-11T07:24:29.996Z,77376.00
2018-08-11T07:25:29.962Z,73536.00
2018-08-11T07:26:29.991Z,83168.00
2018-08-11T07:27:29.932Z,93888.00
2018-08-11T07:28:29.924Z,111616.00
2018-08-11T07:29:30.020Z,130272.00
2018-08-11T07:30:29.933Z,129472.00
2018-08-11T07:31:30.199Z,124256.00
2018-08-11T07:32:29.887Z,21824.00
2018-08-11T07:33:29.863Z,86336.00
2018-08-11T07:34:29.852Z,64576.00
2018-08-11T07:35:29.839Z,16592.00
2018-08-11T07:36:29.992Z,41152.00
2018-08-11T07:37:29.824Z,14908.00
2018-08-11T07:38:29.803Z,14208.00
2018-08-11T07:39:29.801Z,13716.00
2018-08-11T07:40:29.793Z,17600.00
2018-08-11T07:41:29.768Z,14060.00
2018-08-11T07:42:29.786Z,10544.00
2018-08-11T07:43:29.780Z,9712.00
2018-08-11T07:44:29.735Z,11560.00
2018-08-11T07:45:29.733Z,40736.00
2018-08-11T07:46:29.710Z,12076.00
2018-08-11T07:47:30.331Z,21056.00
2018-08-11T07:48:29.696Z,56576.00
2018-08-11T07:49:29.679Z,17832.00
2018-08-11T07:50:29.678Z,60576.00
2018-08-11T07:51:29.663Z,17064.00
2018-08-11T07:52:29.655Z,18912.00
2018-08-11T07:53:29.669Z,52384.00
2018-08-11T07:54:29.627Z,18944.00
2018-08-11T07:55:29.613Z,59552.00
2018-08-11T07:56:29.595Z,55744.00
2018-08-11T07:57:29.593Z,56384.00
2018-08-11T07:58:29.571Z,57792.00
2018-08-11T07:59:29.598Z,57920.00
2018-08-11T08:00:29.558Z,59072.00
2018-08-11T08:01:29.606Z,61760.00
2018-08-11T08:02:29.529Z,66624.00
2018-08-11T08:03:29.521Z,55936.00
2018-08-11T08:04:29.549Z,18592.00
2018-08-11T08:05:29.508Z,50240.00
2018-08-11T08:06:29.491Z,16692.00
2018-08-11T08:07:29.473Z,19072.00
2018-08-11T08:08:29.461Z,35936.00
2018-08-11T08:09:29.586Z,15896.00
2018-08-11T08:10:29.466Z,61984.00
2018-08-11T08:11:29.427Z,11940.00
2018-08-11T08:12:29.422Z,67936.00
2018-08-11T08:13:29.404Z,15808.00
2018-08-11T08:14:29.400Z,60352.00
2018-08-11T08:15:29.381Z,65120.00
2018-08-11T08:16:29.393Z,63712.00
2018-08-11T08:17:29.368Z,66944.00
2018-08-11T08:18:29.348Z,65376.00
2018-08-11T08:19:29.343Z,69216.00
2018-08-11T08:20:29.326Z,71072.00
2018-08-11T08:21:29.346Z,69216.00
2018-08-11T08:22:29.308Z,70816.00
2018-08-11T08:23:29.294Z,72320.00
2018-08-11T08:24:29.282Z,74272.00
2018-08-11T08:25:29.268Z,76480.00
2018-08-11T08:26:29.630Z,27936.00
2018-08-11T08:27:29.247Z,76352.00
2018-08-11T08:28:29.241Z,27808.00
2018-08-11T08:29:29.227Z,20544.00
2018-08-11T08:30:29.218Z,38720.00
2018-08-11T08:31:29.204Z,64576.00
2018-08-11T08:32:29.227Z,75008.00
2018-08-11T08:33:29.409Z,71776.00
2018-08-11T08:34:29.170Z,69408.00
2018-08-11T08:35:29.163Z,80128.00
2018-08-11T08:36:29.148Z,71328.00
2018-08-11T08:37:29.140Z,70560.00
2018-08-11T08:38:29.155Z,70464.00
2018-08-11T08:39:29.160Z,60480.00
2018-08-11T08:40:29.101Z,68512.00
2018-08-11T08:41:29.093Z,70304.00
2018-08-11T08:42:29.080Z,74784.00
2018-08-11T08:43:29.095Z,75808.00
2018-08-11T08:44:29.069Z,72032.00
2018-08-11T08:45:29.047Z,69056.00
2018-08-11T08:46:29.038Z,65184.00
2018-08-11T08:47:29.073Z,12564.00
2018-08-11T08:48:29.042Z,12032.00
2018-08-11T08:49:29.012Z,66784.00
2018-08-11T08:50:29.002Z,67232.00
2018-08-11T08:51:28.982Z,66720.00
2018-08-11T08:52:28.975Z,65152.00
2018-08-11T08:53:28.969Z,26976.00
2018-08-11T08:54:28.984Z,64384.00
2018-08-11T08:55:28.947Z,65184.00
2018-08-11T08:56:28.933Z,66720.00
2018-08-11T08:57:28.922Z,67264.00
2018-08-11T08:58:28.914Z,66336.00
2018-08-11T08:59:28.899Z,65728.00
2018-08-11T09:00:29.168Z,65600.00
2018-08-11T09:01:28.881Z,64416.00
2018-08-11T09:02:28.863Z,63840.00
2018-08-11T09:03:28.858Z,64032.00
2018-08-11T09:04:28.849Z,65312.00
2018-08-11T09:05:28.840Z,65632.00
2018-08-11T09:06:28.848Z,66624.00
2018-08-11T09:07:28.807Z,66784.00
2018-08-11T09:08:28.801Z,59008.00
2018-08-11T09:09:28.784Z,66752.00
2018-08-11T09:10:28.775Z,66848.00
2018-08-11T09:11:28.801Z,65952.00
2018-08-11T09:12:28.760Z,68224.00
2018-08-11T09:13:28.744Z,65728.00
2018-08-11T09:14:28.737Z,70368.00
2018-08-11T09:15:28.729Z,32672.00
2018-08-11T09:16:28.710Z,18688.00
2018-08-11T09:17:28.739Z,22208.00
2018-08-11T09:18:28.694Z,18300.00
2018-08-11T09:19:28.733Z,58496.00
2018-08-11T09:20:28.675Z,66176.00
2018-08-11T09:21:28.653Z,79328.00
2018-08-11T09:22:28.647Z,11572.00
2018-08-11T09:23:28.662Z,10260.00
2018-08-11T09:24:28.630Z,9172.00
2018-08-11T09:25:28.611Z,9348.00
2018-08-11T09:26:28.611Z,10132.00
2018-08-11T09:27:28.588Z,12216.00
2018-08-11T09:28:28.606Z,93568.00
2018-08-11T09:29:29.907Z,90560.00
2018-08-11T09:30:28.667Z,82080.00
2018-08-11T09:31:28.546Z,90080.00
2018-08-11T09:32:28.824Z,17820.00
2018-08-11T09:33:28.553Z,17912.00
2018-08-11T09:34:28.586Z,93504.00
2018-08-11T09:35:28.499Z,97216.00
2018-08-11T09:36:28.489Z,44864.00
2018-08-11T09:37:28.644Z,96064.00
2018-08-11T09:38:28.544Z,43040.00
2018-08-11T09:39:28.488Z,25216.00
2018-08-11T09:40:28.451Z,32256.00
2018-08-11T09:41:28.443Z,76448.00
2018-08-11T09:42:28.428Z,70016.00
2018-08-11T09:43:28.414Z,74624.00
2018-08-11T09:44:28.432Z,72192.00
2018-08-11T09:45:28.396Z,77664.00
2018-08-11T09:46:28.382Z,27200.00
2018-08-11T09:47:28.370Z,93888.00
2018-08-11T09:48:28.363Z,98272.00
2018-08-11T09:49:28.379Z,90720.00
2018-08-11T09:50:28.344Z,34560.00
2018-08-11T09:51:28.330Z,21952.00
2018-08-11T09:52:28.319Z,21216.00
2018-08-11T09:53:28.315Z,24000.00
2018-08-11T09:54:28.331Z,19328.00
2018-08-11T09:55:28.290Z,22080.00
2018-08-11T09:56:28.282Z,23904.00
2018-08-11T09:57:28.262Z,26304.00
2018-08-11T09:58:28.259Z,24448.00
2018-08-11T09:59:28.238Z,25024.00
2018-08-11T10:00:28.260Z,27840.00
2018-08-11T10:01:28.224Z,30624.00
2018-08-11T10:02:28.206Z,102752.00
2018-08-11T10:03:28.204Z,38912.00
2018-08-11T10:04:28.187Z,38656.00
2018-08-11T10:05:28.179Z,110336.00
2018-08-11T10:06:28.193Z,113120.00
2018-08-11T10:07:28.154Z,111136.00
2018-08-11T10:08:28.146Z,111456.00
2018-08-11T10:09:28.132Z,114816.00
2018-08-11T10:10:28.130Z,23840.00
2018-08-11T10:11:28.139Z,117088.00
2018-08-11T10:12:28.095Z,35232.00
2018-08-11T10:13:28.096Z,19264.00
2018-08-11T10:14:28.080Z,15884.00
2018-08-11T10:15:28.069Z,16184.00
2018-08-11T10:16:28.093Z,19808.00
2018-08-11T10:17:28.047Z,114592.00
2018-08-11T10:18:28.663Z,112960.00
2018-08-11T10:19:28.026Z,45568.00
2018-08-11T10:20:28.011Z,36128.00
2018-08-11T10:21:28.008Z,29696.00
2018-08-11T10:22:28.017Z,95264.00
2018-08-11T10:23:27.980Z,31712.00
2018-08-11T10:24:27.974Z,25600.00
2018-08-11T10:25:27.955Z,26976.00
2018-08-11T10:26:27.952Z,20704.00
2018-08-11T10:27:27.965Z,22272.00
2018-08-11T10:28:27.931Z,19968.00
2018-08-11T10:29:27.910Z,21440.00
2018-08-11T10:30:27.902Z,21536.00
2018-08-11T10:31:27.892Z,106944.00
2018-08-11T10:32:27.884Z,40928.00
2018-08-11T10:33:27.899Z,20416.00
2018-08-11T10:34:27.855Z,22080.00
2018-08-11T10:35:27.856Z,80704.00
2018-08-11T10:36:27.843Z,107296.00
2018-08-11T10:37:27.856Z,90720.00
2018-08-11T10:38:27.821Z,56608.00
2018-08-11T10:39:27.800Z,70624.00
2018-08-11T10:40:27.792Z,21536.00
2018-08-11T10:41:27.789Z,17600.00
2018-08-11T10:42:27.774Z,17152.00
2018-08-11T10:43:27.782Z,18400.00
2018-08-11T10:44:27.753Z,20864.00
2018-08-11T10:45:27.737Z,62240.00
2018-08-11T10:46:27.731Z,23840.00
2018-08-11T10:47:27.717Z,19360.00
2018-08-11T10:48:27.745Z,15540.00
2018-08-11T10:49:27.697Z,14472.00
2018-08-11T10:50:27.683Z,108000.00
2018-08-11T10:51:27.675Z,105312.00
2018-08-11T10:52:27.657Z,106336.00
2018-08-11T10:53:27.655Z,102560.00
2018-08-11T10:54:27.664Z,100960.00
2018-08-11T10:55:27.629Z,16992.00
2018-08-11T10:56:27.617Z,51840.00
2018-08-11T10:57:27.609Z,105568.00
2018-08-11T10:58:27.600Z,101056.00
2018-08-11T10:59:27.604Z,99712.00
2018-08-11T11:00:27.573Z,103360.00
2018-08-11T11:01:27.574Z,103744.00
2018-08-11T11:02:27.560Z,105952.00
2018-08-11T11:03:27.539Z,106624.00
2018-08-11T11:04:27.566Z,108320.00
2018-08-11T11:05:27.521Z,40832.00
2018-08-11T11:06:27.507Z,82464.00
2018-08-11T11:07:27.505Z,65024.00
2018-08-11T11:08:27.555Z,91360.00
2018-08-11T11:09:27.480Z,106240.00
2018-08-11T11:10:27.496Z,90720.00
2018-08-11T11:11:27.455Z,29728.00
2018-08-11T11:12:27.451Z,24896.00
2018-08-11T11:13:27.436Z,20960.00
2018-08-11T11:14:27.432Z,19520.00
2018-08-11T11:15:27.447Z,32256.00
2018-08-11T11:16:27.407Z,102592.00
2018-08-11T11:17:27.394Z,102560.00
2018-08-11T11:18:27.381Z,101984.00
2018-08-11T11:19:27.381Z,100992.00
2018-08-11T11:20:27.362Z,95328.00
2018-08-11T11:21:27.378Z,104192.00
2018-08-11T11:22:27.347Z,107456.00
2018-08-11T11:23:27.327Z,105888.00
2018-08-11T11:24:27.322Z,102624.00
2018-08-11T11:25:27.309Z,104608.00
2018-08-11T11:26:27.317Z,102592.00
2018-08-11T11:27:27.298Z,97888.00
2018-08-11T11:28:27.284Z,97984.00
2018-08-11T11:29:27.273Z,99584.00
2018-08-11T11:30:27.266Z,98720.00
2018-08-11T11:31:27.281Z,98144.00
2018-08-11T11:32:27.240Z,101536.00
2018-08-11T11:33:27.234Z,102144.00
2018-08-11T11:34:27.219Z,30656.00
2018-08-11T11:35:27.212Z,32288.00
2018-08-11T11:36:27.198Z,99136.00
2018-08-11T11:37:27.214Z,102016.00
2018-08-11T11:38:27.184Z,58944.00
2018-08-11T11:39:27.178Z,98688.00
2018-08-11T11:40:27.163Z,27200.00
2018-08-11T11:41:27.154Z,22240.00
2018-08-11T11:42:27.172Z,23520.00
2018-08-11T11:43:27.244Z,24640.00
2018-08-11T11:44:27.122Z,25024.00
2018-08-11T11:45:27.111Z,26752.00
2018-08-11T11:46:27.124Z,20128.00
2018-08-11T11:47:27.089Z,19936.00
2018-08-11T11:48:27.102Z,21568.00
2018-08-11T11:49:27.066Z,41088.00
2018-08-11T11:50:27.121Z,32128.00
2018-08-11T11:51:27.142Z,65536.00
2018-08-11T11:52:27.041Z,95104.00
2018-08-11T11:53:27.782Z,104832.00
2018-08-11T11:54:27.163Z,25280.00
2018-08-11T11:55:27.005Z,27008.00
2018-08-11T11:56:27.006Z,55104.00
2018-08-11T11:57:26.980Z,105888.00
2018-08-11T11:58:26.996Z,107744.00
2018-08-11T11:59:26.959Z,103776.00
2018-08-11T12:00:26.947Z,101312.00
2018-08-11T12:01:26.940Z,98688.00
2018-08-11T12:02:26.926Z,29760.00
2018-08-11T12:03:26.943Z,69088.00
2018-08-11T12:04:26.911Z,106144.00
2018-08-11T12:05:27.194Z,104800.00
2018-08-11T12:06:26.936Z,104064.00
2018-08-11T12:07:26.871Z,99744.00
2018-08-11T12:08:27.016Z,97024.00
2018-08-11T12:09:26.943Z,31712.00
2018-08-11T12:10:26.927Z,36384.00
2018-08-11T12:11:26.832Z,32000.00
2018-08-11T12:12:26.876Z,32128.00
2018-08-11T12:13:26.831Z,30912.00
2018-08-11T12:14:26.806Z,107776.00
2018-08-11T12:15:26.791Z,64352.00
2018-08-11T12:16:26.838Z,35008.00